Stafford, Virginia
Current Conditions -  °F | °C
As of 5:35 PM on Friday 19 Dec 2014 (Local Time) from KRMN Reporting Station
Clear Clear  
Wind Chill: 27°   Ceiling: Unl
Heat Index: 35°   Visibility: 10mi
Dew Point: 22°   Wind: 9mph
Humidity: 60%   Direction: 340°NNW
Pressure: 30.23"   Gusts: NA
Location:  38.42°N, 77.41°W
Report Text: KRMN 192235Z AUTO 34008KT 10SM CLR 02/M05 A3023 RMK AO2 T00151055
Loading
Personal Weather Stations






























Interactive Weather Map New forecast layout! Learn more

10-Day Weather Forecast

Advertisements
Track Severe Weather on mobile